メインページ
METAR-TAF:

METAR-TAF

空港 :

ウィーン, オーストリア

ウィーン国際空港

緯度: 48-07N, 経度: 016-34E, 海抜: 183m

現時点の気象観測

当レポートは36分前の11:20(UTC)に作成
北/北西の風 11kt
気温 11°C
湿度 71%
気圧 1026 hPa
視程10km以上
高度2000ftの雲はほとんどない
高度2200ftの千切れ雲あり

METAR: LOWW 241120Z 33011KT 9999 FEW020 BKN022 11/06 Q1026 NOSIG

時間: 12:56 (11:56 UTC)

予報

当レポートは41分前の11:15(UTC)に作成
予報は24日の 12時(UTC)から 25日の 18時(UTC)まで有効
北西の風 13kt
視程10km以上
高度2500ftの千切れ雲あり
24日の 15時(UTC)から 24日の 17時(UTC)まで徐々に
の風 7kt
高度3000ftの雲は散在している
25日の 03時(UTC)から 25日の 05時(UTC)まで徐々に
高度2000ftの千切れ雲あり
25日の 10時(UTC)から 25日の 12時(UTC)まで徐々に
視程10km以上
1,500メートル以下は雲なし、積乱雲なし

TAF: LOWW 241115Z 2412/2518 32013KT 9999 BKN025 TX14/2514Z TN04/2503Z BECMG 2415/2417 36007KT SCT030 BECMG 2503/2505 BKN020 BECMG 2510/2512 CAVOK

4,000以上の空港の気象観測と天気予報(METAR報とTAF報)

利用可能な観測所は地図上に黄色い丸と赤い丸で示す。

丸の上にカーソルを重ねると観測所名を参照できる。

次にクリックすると気象観測と天気予報を参照できる。

マップの切り替え:黒色「×」印の緑ボタンをクリックして拡大、「-」印の緑ボタンをクリックして縮小、緑色の三角印をクリックして隣りの地図に切り替え


METAR-TAF: